Sioux Lookout Airport
CYXL : now visible

Airfield :











YOU CAN JOIN US ON...

 
LOGIN :

Register | Disclaimer

   EN    FR    IT 

 









Legend :    VFR   Marginal VFR   IFR   Intensive IFR   Very Intensive IFR
Visi :
Ceiling :
>= 8 km
>= 3000ft
5 to 8 km
1000 to 3000 ft
1500m to 5 km
500 to 1000 ft
800 to 1500m
200 to 500 ft
< 800m
< 200 ft
Symbols :   Thunderstorms  Fog  Heavy snow  Heavy precipitations  Wind > 20 kt






- Airport Elevation : 1258 ft
- IATA code : YXL


CYXL - Sioux Lookout

CURRENT METAR :
  • 142100Z 33007KT 15SM FEW210 M18/M21 A2990 RMK CI2 SLP167

EXPIRED METARs :
  • 142000Z 34008KT 15SM FEW010 FEW210 M17/M21 A2989 RMK SF1CI2 SF TR SLP162
  • 141900Z 34006KT 15SM BKN210 M17/M21 A2988 RMK CI6 SLP159

TAF TAF CYXL
Valid from the 14 at 20:00 until the 15 at 08:00 UTC


141938Z 1420/1508 03005KT P6SM SCT210
BECMG 1500/1502 32005KT SKC RMK NXT FCST BY 150200Z



MET'MAP, your aeronautical weather chart ! - Copyright ORBIFLY December 2007 - Disclaimer

ORBIFLY MET'MAP TEAM :

Programming & Development : Alexandra Zaïnal
Concept & original design : Baudouin d'Aumeries
Assistance for programming : Marc-Olivier Méhu
Technical & hardware support : Manuel Goepfert

Contact : metmap@orbifly.com




SOURCES & CREDITS :

   NOAA       Earth
Advisory